sensor_id;sensor_type;location;lat;lon;timestamp;P1;durP1;ratioP1;P2;durP2;ratioP2
71238;SDS011;61342;51.442;7.370;2022-07-09T05:23:38;15.17;;;7.57;;
71238;SDS011;61342;51.442;7.370;2022-07-09T05:24:39;16.13;;;7.47;;
71238;SDS011;61342;51.442;7.370;2022-07-09T05:25:40;15.23;;;7.27;;
71238;SDS011;61342;51.442;7.370;2022-07-09T05:26:40;14.37;;;7.80;;
71238;SDS011;61342;51.442;7.370;2022-07-09T05:27:41;15.00;;;8.43;;
71238;SDS011;61342;51.442;7.370;2022-07-09T05:28:43;10.33;;;7.67;;
71238;SDS011;61342;51.442;7.370;2022-07-09T05:29:43;12.53;;;8.53;;
71238;SDS011;61342;51.442;7.370;2022-07-09T05:30:44;11.40;;;8.23;;
71238;SDS011;61342;51.442;7.370;2022-07-09T05:31:44;13.37;;;8.97;;
71238;SDS011;61342;51.442;7.370;2022-07-09T05:32:46;13.07;;;8.20;;
71238;SDS011;61342;51.442;7.370;2022-07-09T05:33:47;17.07;;;9.10;;
71238;SDS011;61342;51.442;7.370;2022-07-09T05:34:47;13.77;;;8.73;;
71238;SDS011;61342;51.442;7.370;2022-07-09T05:35:47;13.33;;;8.70;;
71238;SDS011;61342;51.442;7.370;2022-07-09T05:36:48;12.87;;;7.93;;
71238;SDS011;61342;51.442;7.370;2022-07-09T05:37:48;11.73;;;8.27;;
71238;SDS011;61342;51.442;7.370;2022-07-09T05:38:49;12.03;;;8.40;;
71238;SDS011;61342;51.442;7.370;2022-07-09T05:39:49;12.50;;;8.03;;
71238;SDS011;61342;51.442;7.370;2022-07-09T05:40:49;14.77;;;7.83;;
71238;SDS011;61342;51.442;7.370;2022-07-09T05:41:50;10.40;;;8.07;;
71238;SDS011;61342;51.442;7.370;2022-07-09T05:42:51;11.97;;;8.37;;
71238;SDS011;61342;51.442;7.370;2022-07-09T05:43:52;11.00;;;8.17;;
71238;SDS011;61342;51.442;7.370;2022-07-09T05:44:52;13.40;;;7.97;;
71238;SDS011;61342;51.442;7.370;2022-07-09T05:45:53;10.87;;;7.83;;
71238;SDS011;61342;51.442;7.370;2022-07-09T05:46:53;9.47;;;7.63;;
71238;SDS011;61342;51.442;7.370;2022-07-09T05:47:54;11.70;;;7.43;;
71238;SDS011;61342;51.442;7.370;2022-07-09T05:48:54;11.07;;;6.83;;
71238;SDS011;61342;51.442;7.370;2022-07-09T05:49:54;21.57;;;8.40;;
71238;SDS011;61342;51.442;7.370;2022-07-09T05:50:55;14.43;;;7.43;;
71238;SDS011;61342;51.442;7.370;2022-07-09T05:51:55;11.60;;;6.67;;
71238;SDS011;61342;51.442;7.370;2022-07-09T05:52:56;12.13;;;6.63;;
71238;SDS011;61342;51.442;7.370;2022-07-09T05:53:57;8.73;;;6.60;;
71238;SDS011;61342;51.442;7.370;2022-07-09T05:54:57;11.70;;;6.57;;
71238;SDS011;61342;51.442;7.370;2022-07-09T05:55:57;10.53;;;7.03;;
71238;SDS011;61342;51.442;7.370;2022-07-09T05:56:58;10.40;;;7.67;;
71238;SDS011;61342;51.442;7.370;2022-07-09T05:57:58;11.23;;;7.10;;
71238;SDS011;61342;51.442;7.370;2022-07-09T05:58:59;12.37;;;6.60;;
71238;SDS011;61342;51.442;7.370;2022-07-09T05:59:59;11.87;;;6.70;;
71238;SDS011;61342;51.442;7.370;2022-07-09T06:00:59;9.73;;;6.57;;
71238;SDS011;61342;51.442;7.370;2022-07-09T06:02:00;12.17;;;6.53;;
71238;SDS011;61342;51.442;7.370;2022-07-09T06:03:03;9.03;;;6.57;;
71238;SDS011;61342;51.442;7.370;2022-07-09T06:04:03;11.53;;;6.50;;
71238;SDS011;61342;51.442;7.370;2022-07-09T06:05:03;8.27;;;5.70;;
71238;SDS011;61342;51.442;7.370;2022-07-09T06:06:04;9.97;;;6.23;;
71238;SDS011;61342;51.442;7.370;2022-07-09T06:07:05;7.60;;;5.50;;
71238;SDS011;61342;51.442;7.370;2022-07-09T06:08:05;8.37;;;4.57;;
71238;SDS011;61342;51.442;7.370;2022-07-09T06:09:06;7.37;;;5.20;;
71238;SDS011;61342;51.442;7.370;2022-07-09T06:10:06;6.57;;;5.27;;
71238;SDS011;61342;51.442;7.370;2022-07-09T06:11:07;7.57;;;4.97;;
71238;SDS011;61342;51.442;7.370;2022-07-09T06:12:08;7.43;;;5.50;;
71238;SDS011;61342;51.442;7.370;2022-07-09T06:13:08;7.13;;;4.80;;
71238;SDS011;61342;51.442;7.370;2022-07-09T06:14:09;10.87;;;5.40;;
71238;SDS011;61342;51.442;7.370;2022-07-09T06:15:10;7.53;;;5.43;;
71238;SDS011;61342;51.442;7.370;2022-07-09T06:16:11;9.63;;;5.10;;
71238;SDS011;61342;51.442;7.370;2022-07-09T06:17:11;6.47;;;4.90;;
71238;SDS011;61342;51.442;7.370;2022-07-09T06:18:12;5.93;;;4.90;;
71238;SDS011;61342;51.442;7.370;2022-07-09T06:19:13;7.90;;;5.10;;
71238;SDS011;61342;51.442;7.370;2022-07-09T06:20:14;8.03;;;5.20;;
71238;SDS011;61342;51.442;7.370;2022-07-09T06:21:16;6.10;;;5.17;;
71238;SDS011;61342;51.442;7.370;2022-07-09T06:22:16;7.77;;;5.17;;
71238;SDS011;61342;51.442;7.370;2022-07-09T06:23:16;9.03;;;5.37;;
71238;SDS011;61342;51.442;7.370;2022-07-09T06:24:17;8.83;;;5.60;;
71238;SDS011;61342;51.442;7.370;2022-07-09T06:25:17;6.70;;;4.57;;
71238;SDS011;61342;51.442;7.370;2022-07-09T06:26:17;6.67;;;4.73;;
71238;SDS011;61342;51.442;7.370;2022-07-09T06:27:18;7.27;;;4.43;;
71238;SDS011;61342;51.442;7.370;2022-07-09T06:28:18;7.60;;;4.37;;
71238;SDS011;61342;51.442;7.370;2022-07-09T06:29:19;7.00;;;3.63;;
71238;SDS011;61342;51.442;7.370;2022-07-09T06:30:20;9.00;;;4.27;;
71238;SDS011;61342;51.442;7.370;2022-07-09T06:31:20;8.40;;;4.30;;
71238;SDS011;61342;51.442;7.370;2022-07-09T06:32:21;8.47;;;3.97;;
71238;SDS011;61342;51.442;7.370;2022-07-09T06:33:21;7.73;;;3.87;;
71238;SDS011;61342;51.442;7.370;2022-07-09T06:34:22;7.17;;;3.97;;
71238;SDS011;61342;51.442;7.370;2022-07-09T06:35:22;7.17;;;4.00;;
71238;SDS011;61342;51.442;7.370;2022-07-09T06:36:23;8.33;;;3.47;;
71238;SDS011;61342;51.442;7.370;2022-07-09T06:37:23;3.80;;;2.87;;
71238;SDS011;61342;51.442;7.370;2022-07-09T06:38:27;4.53;;;2.90;;
71238;SDS011;61342;51.442;7.370;2022-07-09T06:39:29;3.67;;;2.73;;
71238;SDS011;61342;51.442;7.370;2022-07-09T06:40:44;3.93;;;3.20;;
71238;SDS011;61342;51.442;7.370;2022-07-09T06:41:44;3.67;;;2.53;;
71238;SDS011;61342;51.442;7.370;2022-07-09T06:42:45;3.33;;;2.60;;
71238;SDS011;61342;51.442;7.370;2022-07-09T06:43:45;2.60;;;2.40;;
71238;SDS011;61342;51.442;7.370;2022-07-09T06:44:46;4.10;;;2.53;;
71238;SDS011;61342;51.442;7.370;2022-07-09T06:45:48;3.23;;;2.60;;
71238;SDS011;61342;51.442;7.370;2022-07-09T06:46:49;2.73;;;2.20;;
71238;SDS011;61342;51.442;7.370;2022-07-09T06:49:25;5.90;;;2.00;;
71238;SDS011;61342;51.442;7.370;2022-07-09T06:50:29;3.27;;;2.53;;
71238;SDS011;61342;51.442;7.370;2022-07-09T06:51:29;4.00;;;2.30;;
71238;SDS011;61342;51.442;7.370;2022-07-09T06:52:30;2.40;;;1.97;;
71238;SDS011;61342;51.442;7.370;2022-07-09T06:53:39;2.80;;;1.90;;
71238;SDS011;61342;51.442;7.370;2022-07-09T06:54:42;1.73;;;1.60;;
71238;SDS011;61342;51.442;7.370;2022-07-09T06:55:42;4.33;;;1.83;;
71238;SDS011;61342;51.442;7.370;2022-07-09T06:56:43;3.67;;;1.77;;
71238;SDS011;61342;51.442;7.370;2022-07-09T06:57:46;2.87;;;1.73;;
71238;SDS011;61342;51.442;7.370;2022-07-09T06:58:47;2.73;;;1.70;;
71238;SDS011;61342;51.442;7.370;2022-07-09T07:01:44;1.97;;;1.63;;
71238;SDS011;61342;51.442;7.370;2022-07-09T07:02:47;2.53;;;1.97;;
71238;SDS011;61342;51.442;7.370;2022-07-09T07:04:03;2.40;;;1.70;;
71238;SDS011;61342;51.442;7.370;2022-07-09T07:05:03;2.07;;;1.90;;
71238;SDS011;61342;51.442;7.370;2022-07-09T07:06:05;4.50;;;2.03;;
71238;SDS011;61342;51.442;7.370;2022-07-09T07:07:12;3.27;;;1.73;;
71238;SDS011;61342;51.442;7.370;2022-07-09T07:08:13;2.53;;;1.90;;
71238;SDS011;61342;51.442;7.370;2022-07-09T07:09:14;3.37;;;1.73;;
71238;SDS011;61342;51.442;7.370;2022-07-09T07:10:18;2.93;;;1.77;;
71238;SDS011;61342;51.442;7.370;2022-07-09T07:11:18;3.93;;;1.70;;
71238;SDS011;61342;51.442;7.370;2022-07-09T07:12:19;2.87;;;1.70;;
71238;SDS011;61342;51.442;7.370;2022-07-09T07:13:38;3.60;;;1.73;;
71238;SDS011;61342;51.442;7.370;2022-07-09T07:14:51;2.50;;;1.67;;
71238;SDS011;61342;51.442;7.370;2022-07-09T07:16:04;2.73;;;1.83;;
71238;SDS011;61342;51.442;7.370;2022-07-09T07:17:16;3.47;;;2.33;;
71238;SDS011;61342;51.442;7.370;2022-07-09T07:18:19;5.37;;;2.87;;
71238;SDS011;61342;51.442;7.370;2022-07-09T07:19:20;6.97;;;3.80;;
71238;SDS011;61342;51.442;7.370;2022-07-09T07:20:23;7.13;;;3.70;;
71238;SDS011;61342;51.442;7.370;2022-07-09T07:21:25;4.70;;;2.53;;
71238;SDS011;61342;51.442;7.370;2022-07-09T07:22:25;4.00;;;2.27;;
71238;SDS011;61342;51.442;7.370;2022-07-09T07:23:25;4.10;;;2.10;;
71238;SDS011;61342;51.442;7.370;2022-07-09T07:24:26;2.63;;;1.90;;
71238;SDS011;61342;51.442;7.370;2022-07-09T07:25:26;3.00;;;1.93;;
71238;SDS011;61342;51.442;7.370;2022-07-09T07:26:27;3.47;;;2.37;;
71238;SDS011;61342;51.442;7.370;2022-07-09T07:27:27;4.13;;;2.37;;
71238;SDS011;61342;51.442;7.370;2022-07-09T07:28:28;4.00;;;2.67;;
71238;SDS011;61342;51.442;7.370;2022-07-09T07:29:28;2.80;;;2.30;;
71238;SDS011;61342;51.442;7.370;2022-07-09T07:30:28;2.87;;;2.40;;
71238;SDS011;61342;51.442;7.370;2022-07-09T07:31:32;4.40;;;2.47;;
71238;SDS011;61342;51.442;7.370;2022-07-09T07:32:33;5.55;;;2.83;;
71238;SDS011;61342;51.442;7.370;2022-07-09T07:33:33;4.23;;;2.53;;
71238;SDS011;61342;51.442;7.370;2022-07-09T07:34:33;2.50;;;2.30;;
71238;SDS011;61342;51.442;7.370;2022-07-09T07:35:34;7.00;;;2.60;;
71238;SDS011;61342;51.442;7.370;2022-07-09T07:36:34;3.40;;;2.27;;
71238;SDS011;61342;51.442;7.370;2022-07-09T07:37:35;2.83;;;2.20;;
71238;SDS011;61342;51.442;7.370;2022-07-09T07:38:35;3.58;;;2.50;;
71238;SDS011;61342;51.442;7.370;2022-07-09T07:39:36;2.88;;;2.00;;
71238;SDS011;61342;51.442;7.370;2022-07-09T07:40:36;4.20;;;2.10;;
71238;SDS011;61342;51.442;7.370;2022-07-09T07:41:36;2.83;;;2.30;;
71238;SDS011;61342;51.442;7.370;2022-07-09T07:42:37;4.38;;;2.00;;
71238;SDS011;61342;51.442;7.370;2022-07-09T07:43:38;2.95;;;1.80;;
71238;SDS011;61342;51.442;7.370;2022-07-09T07:44:38;3.08;;;1.60;;
71238;SDS011;61342;51.442;7.370;2022-07-09T07:45:39;2.92;;;1.75;;
71238;SDS011;61342;51.442;7.370;2022-07-09T07:46:39;4.75;;;1.75;;
71238;SDS011;61342;51.442;7.370;2022-07-09T07:47:39;5.00;;;1.73;;
71238;SDS011;61342;51.442;7.370;2022-07-09T07:48:40;2.45;;;1.73;;
71238;SDS011;61342;51.442;7.370;2022-07-09T07:49:43;2.97;;;1.90;;
71238;SDS011;61342;51.442;7.370;2022-07-09T07:50:43;1.67;;;1.58;;
71238;SDS011;61342;51.442;7.370;2022-07-09T07:51:44;2.47;;;1.70;;
71238;SDS011;61342;51.442;7.370;2022-07-09T07:52:44;2.83;;;1.70;;
71238;SDS011;61342;51.442;7.370;2022-07-09T07:53:44;23.20;;;4.55;;
71238;SDS011;61342;51.442;7.370;2022-07-09T07:54:45;16.55;;;3.58;;
71238;SDS011;61342;51.442;7.370;2022-07-09T07:55:46;7.35;;;3.03;;
71238;SDS011;61342;51.442;7.370;2022-07-09T07:56:46;5.95;;;2.65;;
71238;SDS011;61342;51.442;7.370;2022-07-09T07:57:46;19.90;;;7.57;;
71238;SDS011;61342;51.442;7.370;2022-07-09T07:58:47;22.15;;;7.97;;
71238;SDS011;61342;51.442;7.370;2022-07-09T07:59:47;13.20;;;4.03;;
71238;SDS011;61342;51.442;7.370;2022-07-09T08:00:47;4.43;;;2.45;;
71238;SDS011;61342;51.442;7.370;2022-07-09T08:01:48;5.75;;;2.15;;
71238;SDS011;61342;51.442;7.370;2022-07-09T08:02:48;3.17;;;1.83;;
71238;SDS011;61342;51.442;7.370;2022-07-09T08:03:49;3.67;;;1.83;;
71238;SDS011;61342;51.442;7.370;2022-07-09T08:04:49;3.75;;;1.80;;
71238;SDS011;61342;51.442;7.370;2022-07-09T08:05:49;2.47;;;1.77;;
71238;SDS011;61342;51.442;7.370;2022-07-09T08:06:50;2.50;;;1.50;;
71238;SDS011;61342;51.442;7.370;2022-07-09T08:07:50;5.00;;;1.90;;
71238;SDS011;61342;51.442;7.370;2022-07-09T08:08:51;2.17;;;1.88;;
71238;SDS011;61342;51.442;7.370;2022-07-09T08:09:51;2.90;;;1.70;;
71238;SDS011;61342;51.442;7.370;2022-07-09T08:10:51;4.40;;;1.92;;
71238;SDS011;61342;51.442;7.370;2022-07-09T08:11:52;4.43;;;2.13;;
71238;SDS011;61342;51.442;7.370;2022-07-09T08:12:52;3.97;;;2.05;;
71238;SDS011;61342;51.442;7.370;2022-07-09T08:13:53;3.17;;;1.67;;
71238;SDS011;61342;51.442;7.370;2022-07-09T08:14:53;1.73;;;1.52;;
71238;SDS011;61342;51.442;7.370;2022-07-09T08:15:53;3.40;;;1.90;;
71238;SDS011;61342;51.442;7.370;2022-07-09T08:16:54;4.65;;;1.60;;
71238;SDS011;61342;51.442;7.370;2022-07-09T08:17:54;6.22;;;1.60;;
71238;SDS011;61342;51.442;7.370;2022-07-09T08:18:55;31.48;;;3.35;;
71238;SDS011;61342;51.442;7.370;2022-07-09T08:19:55;29.42;;;3.03;;
71238;SDS011;61342;51.442;7.370;2022-07-09T08:20:55;17.48;;;2.70;;
71238;SDS011;61342;51.442;7.370;2022-07-09T08:21:56;7.70;;;1.60;;
71238;SDS011;61342;51.442;7.370;2022-07-09T08:22:56;3.13;;;1.55;;
71238;SDS011;61342;51.442;7.370;2022-07-09T08:23:57;3.72;;;1.50;;
71238;SDS011;61342;51.442;7.370;2022-07-09T08:25:00;2.50;;;1.38;;
71238;SDS011;61342;51.442;7.370;2022-07-09T08:26:00;3.03;;;1.70;;
71238;SDS011;61342;51.442;7.370;2022-07-09T08:27:01;2.25;;;1.55;;
71238;SDS011;61342;51.442;7.370;2022-07-09T08:28:01;3.78;;;1.83;;
71238;SDS011;61342;51.442;7.370;2022-07-09T08:29:04;3.92;;;1.55;;
71238;SDS011;61342;51.442;7.370;2022-07-09T08:30:05;2.75;;;1.63;;
71238;SDS011;61342;51.442;7.370;2022-07-09T08:31:06;2.25;;;1.50;;
71238;SDS011;61342;51.442;7.370;2022-07-09T08:32:09;2.85;;;1.40;;
71238;SDS011;61342;51.442;7.370;2022-07-09T08:34:26;1.75;;;1.48;;
71238;SDS011;61342;51.442;7.370;2022-07-09T08:35:36;2.17;;;1.45;;
71238;SDS011;61342;51.442;7.370;2022-07-09T08:36:40;3.05;;;1.60;;
71238;SDS011;61342;51.442;7.370;2022-07-09T08:37:40;2.90;;;1.63;;
71238;SDS011;61342;51.442;7.370;2022-07-09T08:38:41;3.15;;;1.73;;
71238;SDS011;61342;51.442;7.370;2022-07-09T08:39:59;3.92;;;1.80;;
71238;SDS011;61342;51.442;7.370;2022-07-09T08:41:02;2.83;;;1.55;;
71238;SDS011;61342;51.442;7.370;2022-07-09T08:42:07;3.40;;;1.60;;
71238;SDS011;61342;51.442;7.370;2022-07-09T08:43:43;2.72;;;1.45;;
71238;SDS011;61342;51.442;7.370;2022-07-09T08:44:46;3.90;;;1.70;;
71238;SDS011;61342;51.442;7.370;2022-07-09T08:45:47;3.58;;;1.90;;
71238;SDS011;61342;51.442;7.370;2022-07-09T08:47:00;4.80;;;2.20;;
71238;SDS011;61342;51.442;7.370;2022-07-09T08:48:41;3.50;;;1.92;;
71238;SDS011;61342;51.442;7.370;2022-07-09T08:50:41;4.45;;;1.90;;
71238;SDS011;61342;51.442;7.370;2022-07-09T08:51:44;3.67;;;1.80;;
71238;SDS011;61342;51.442;7.370;2022-07-09T08:52:47;2.45;;;1.75;;
71238;SDS011;61342;51.442;7.370;2022-07-09T08:53:53;3.83;;;1.90;;
71238;SDS011;61342;51.442;7.370;2022-07-09T08:56:51;2.40;;;1.90;;
71238;SDS011;61342;51.442;7.370;2022-07-09T08:57:55;2.45;;;1.83;;
71238;SDS011;61342;51.442;7.370;2022-07-09T08:58:56;3.22;;;1.83;;
71238;SDS011;61342;51.442;7.370;2022-07-09T09:00:19;4.47;;;2.30;;
71238;SDS011;61342;51.442;7.370;2022-07-09T09:01:21;3.22;;;2.17;;
71238;SDS011;61342;51.442;7.370;2022-07-09T09:02:22;3.53;;;2.20;;
71238;SDS011;61342;51.442;7.370;2022-07-09T09:03:23;7.13;;;2.50;;
71238;SDS011;61342;51.442;7.370;2022-07-09T09:04:41;5.30;;;2.65;;
71238;SDS011;61342;51.442;7.370;2022-07-09T09:05:59;3.65;;;2.00;;
71238;SDS011;61342;51.442;7.370;2022-07-09T09:07:16;9.20;;;2.55;;
71238;SDS011;61342;51.442;7.370;2022-07-09T09:08:21;7.53;;;2.80;;
71238;SDS011;61342;51.442;7.370;2022-07-09T09:09:34;6.63;;;2.78;;
71238;SDS011;61342;51.442;7.370;2022-07-09T09:10:37;3.65;;;2.40;;
71238;SDS011;61342;51.442;7.370;2022-07-09T09:11:38;4.38;;;2.50;;
71238;SDS011;61342;51.442;7.370;2022-07-09T09:12:42;3.03;;;2.08;;
71238;SDS011;61342;51.442;7.370;2022-07-09T09:13:43;3.22;;;2.15;;
71238;SDS011;61342;51.442;7.370;2022-07-09T09:14:48;3.13;;;2.20;;
71238;SDS011;61342;51.442;7.370;2022-07-09T09:15:49;2.47;;;1.83;;
71238;SDS011;61342;51.442;7.370;2022-07-09T09:16:50;3.05;;;1.70;;
71238;SDS011;61342;51.442;7.370;2022-07-09T09:17:53;3.00;;;1.63;;
71238;SDS011;61342;51.442;7.370;2022-07-09T09:18:54;3.63;;;1.70;;
71238;SDS011;61342;51.442;7.370;2022-07-09T09:19:56;5.05;;;1.92;;
71238;SDS011;61342;51.442;7.370;2022-07-09T09:21:04;6.30;;;1.95;;
71238;SDS011;61342;51.442;7.370;2022-07-09T09:22:06;4.82;;;1.90;;
71238;SDS011;61342;51.442;7.370;2022-07-09T09:23:07;2.55;;;1.77;;
71238;SDS011;61342;51.442;7.370;2022-07-09T09:24:10;3.58;;;1.67;;
71238;SDS011;61342;51.442;7.370;2022-07-09T09:25:20;3.92;;;1.90;;
71238;SDS011;61342;51.442;7.370;2022-07-09T09:26:22;4.40;;;2.30;;
71238;SDS011;61342;51.442;7.370;2022-07-09T09:27:28;3.53;;;2.00;;
71238;SDS011;61342;51.442;7.370;2022-07-09T09:28:30;3.47;;;2.05;;
71238;SDS011;61342;51.442;7.370;2022-07-09T09:29:31;3.22;;;2.10;;
71238;SDS011;61342;51.442;7.370;2022-07-09T09:30:31;4.05;;;2.50;;
71238;SDS011;61342;51.442;7.370;2022-07-09T09:32:36;3.88;;;2.10;;
71238;SDS011;61342;51.442;7.370;2022-07-09T09:33:36;7.25;;;2.63;;
71238;SDS011;61342;51.442;7.370;2022-07-09T09:34:36;2.78;;;2.13;;
71238;SDS011;61342;51.442;7.370;2022-07-09T09:35:42;4.00;;;1.92;;
71238;SDS011;61342;51.442;7.370;2022-07-09T09:36:45;2.92;;;1.50;;
71238;SDS011;61342;51.442;7.370;2022-07-09T09:37:46;2.22;;;1.40;;
71238;SDS011;61342;51.442;7.370;2022-07-09T09:38:47;5.97;;;1.70;;
71238;SDS011;61342;51.442;7.370;2022-07-09T09:39:50;3.25;;;1.48;;
71238;SDS011;61342;51.442;7.370;2022-07-09T09:40:51;2.92;;;1.48;;
71238;SDS011;61342;51.442;7.370;2022-07-09T09:42:52;2.08;;;1.52;;
71238;SDS011;61342;51.442;7.370;2022-07-09T09:43:58;3.38;;;1.52;;
71238;SDS011;61342;51.442;7.370;2022-07-09T09:45:02;3.88;;;1.60;;
71238;SDS011;61342;51.442;7.370;2022-07-09T09:46:02;2.78;;;2.00;;
71238;SDS011;61342;51.442;7.370;2022-07-09T09:47:05;3.70;;;2.13;;
71238;SDS011;61342;51.442;7.370;2022-07-09T09:48:07;2.83;;;1.95;;
71238;SDS011;61342;51.442;7.370;2022-07-09T09:49:08;4.60;;;2.20;;
71238;SDS011;61342;51.442;7.370;2022-07-09T09:50:11;3.35;;;2.00;;
71238;SDS011;61342;51.442;7.370;2022-07-09T09:51:14;3.15;;;1.80;;
71238;SDS011;61342;51.442;7.370;2022-07-09T09:52:19;3.30;;;1.90;;
71238;SDS011;61342;51.442;7.370;2022-07-09T09:53:20;2.65;;;2.03;;
71238;SDS011;61342;51.442;7.370;2022-07-09T09:54:23;4.13;;;2.10;;
71238;SDS011;61342;51.442;7.370;2022-07-09T09:55:24;4.03;;;1.90;;
71238;SDS011;61342;51.442;7.370;2022-07-09T09:56:24;4.18;;;2.30;;
71238;SDS011;61342;51.442;7.370;2022-07-09T09:57:25;3.63;;;1.90;;
71238;SDS011;61342;51.442;7.370;2022-07-09T09:58:27;2.47;;;1.60;;
71238;SDS011;61342;51.442;7.370;2022-07-09T09:59:28;1.88;;;1.60;;
71238;SDS011;61342;51.442;7.370;2022-07-09T10:00:29;3.10;;;1.80;;
71238;SDS011;61342;51.442;7.370;2022-07-09T10:01:32;2.25;;;1.60;;
71238;SDS011;61342;51.442;7.370;2022-07-09T10:02:36;2.92;;;1.70;;
71238;SDS011;61342;51.442;7.370;2022-07-09T10:03:38;3.60;;;1.70;;
71238;SDS011;61342;51.442;7.370;2022-07-09T10:04:43;3.33;;;1.60;;
71238;SDS011;61342;51.442;7.370;2022-07-09T10:05:44;2.70;;;1.50;;
71238;SDS011;61342;51.442;7.370;2022-07-09T10:06:48;2.40;;;1.50;;
71238;SDS011;61342;51.442;7.370;2022-07-09T10:07:48;2.80;;;1.55;;
71238;SDS011;61342;51.442;7.370;2022-07-09T10:08:49;1.40;;;1.30;;
71238;SDS011;61342;51.442;7.370;2022-07-09T10:09:56;2.30;;;1.33;;
71238;SDS011;61342;51.442;7.370;2022-07-09T10:10:58;1.88;;;1.30;;
71238;SDS011;61342;51.442;7.370;2022-07-09T10:11:58;2.85;;;1.38;;
71238;SDS011;61342;51.442;7.370;2022-07-09T10:12:59;2.80;;;1.45;;
71238;SDS011;61342;51.442;7.370;2022-07-09T10:13:59;1.80;;;1.13;;
71238;SDS011;61342;51.442;7.370;2022-07-09T10:15:00;3.88;;;1.45;;
71238;SDS011;61342;51.442;7.370;2022-07-09T10:16:00;1.73;;;1.40;;
71238;SDS011;61342;51.442;7.370;2022-07-09T10:17:11;2.38;;;1.58;;
71238;SDS011;61342;51.442;7.370;2022-07-09T10:18:18;2.15;;;1.30;;
71238;SDS011;61342;51.442;7.370;2022-07-09T10:19:28;2.55;;;1.75;;
71238;SDS011;61342;51.442;7.370;2022-07-09T10:20:33;4.85;;;1.58;;
71238;SDS011;61342;51.442;7.370;2022-07-09T10:21:37;3.92;;;1.80;;
71238;SDS011;61342;51.442;7.370;2022-07-09T10:22:43;3.40;;;1.95;;
71238;SDS011;61342;51.442;7.370;2022-07-09T10:23:50;5.88;;;2.03;;
71238;SDS011;61342;51.442;7.370;2022-07-09T10:24:53;5.75;;;2.08;;
71238;SDS011;61342;51.442;7.370;2022-07-09T10:25:54;7.45;;;2.38;;
71238;SDS011;61342;51.442;7.370;2022-07-09T10:27:03;3.55;;;2.17;;
71238;SDS011;61342;51.442;7.370;2022-07-09T10:28:13;3.13;;;2.08;;
71238;SDS011;61342;51.442;7.370;2022-07-09T10:29:25;5.15;;;2.13;;
71238;SDS011;61342;51.442;7.370;2022-07-09T10:30:30;7.00;;;2.38;;
71238;SDS011;61342;51.442;7.370;2022-07-09T10:31:31;3.30;;;2.22;;
71238;SDS011;61342;51.442;7.370;2022-07-09T10:32:35;5.47;;;2.53;;
71238;SDS011;61342;51.442;7.370;2022-07-09T10:33:44;4.60;;;2.50;;
71238;SDS011;61342;51.442;7.370;2022-07-09T10:36:13;4.97;;;2.38;;
71238;SDS011;61342;51.442;7.370;2022-07-09T10:37:15;4.53;;;2.33;;
71238;SDS011;61342;51.442;7.370;2022-07-09T10:38:15;5.93;;;2.60;;
71238;SDS011;61342;51.442;7.370;2022-07-09T10:39:16;3.88;;;2.58;;
71238;SDS011;61342;51.442;7.370;2022-07-09T10:40:17;3.60;;;2.50;;
71238;SDS011;61342;51.442;7.370;2022-07-09T10:41:23;3.53;;;2.42;;
71238;SDS011;61342;51.442;7.370;2022-07-09T10:42:24;4.68;;;2.47;;
71238;SDS011;61342;51.442;7.370;2022-07-09T10:44:41;3.80;;;2.40;;
71238;SDS011;61342;51.442;7.370;2022-07-09T10:45:44;5.72;;;2.38;;
71238;SDS011;61342;51.442;7.370;2022-07-09T10:46:54;5.07;;;2.72;;
71238;SDS011;61342;51.442;7.370;2022-07-09T10:47:58;5.68;;;2.55;;
71238;SDS011;61342;51.442;7.370;2022-07-09T10:49:01;4.95;;;2.80;;
71238;SDS011;61342;51.442;7.370;2022-07-09T10:50:03;4.15;;;2.95;;
71238;SDS011;61342;51.442;7.370;2022-07-09T10:51:04;3.55;;;2.50;;
71238;SDS011;61342;51.442;7.370;2022-07-09T10:52:05;4.63;;;2.30;;
71238;SDS011;61342;51.442;7.370;2022-07-09T10:53:09;5.25;;;2.50;;
71238;SDS011;61342;51.442;7.370;2022-07-09T10:54:17;4.45;;;3.00;;
71238;SDS011;61342;51.442;7.370;2022-07-09T10:55:18;3.97;;;2.75;;
71238;SDS011;61342;51.442;7.370;2022-07-09T10:56:28;6.93;;;3.30;;
71238;SDS011;61342;51.442;7.370;2022-07-09T10:57:28;6.57;;;3.08;;
71238;SDS011;61342;51.442;7.370;2022-07-09T10:58:31;8.80;;;2.97;;
71238;SDS011;61342;51.442;7.370;2022-07-09T10:59:32;4.90;;;2.67;;
71238;SDS011;61342;51.442;7.370;2022-07-09T11:00:35;9.70;;;3.47;;
71238;SDS011;61342;51.442;7.370;2022-07-09T11:01:36;6.80;;;3.15;;
71238;SDS011;61342;51.442;7.370;2022-07-09T11:02:50;7.25;;;3.10;;
71238;SDS011;61342;51.442;7.370;2022-07-09T11:03:51;7.07;;;3.08;;
71238;SDS011;61342;51.442;7.370;2022-07-09T11:04:52;5.03;;;2.75;;
71238;SDS011;61342;51.442;7.370;2022-07-09T11:05:53;7.35;;;2.63;;
71238;SDS011;61342;51.442;7.370;2022-07-09T11:06:53;8.27;;;2.65;;
71238;SDS011;61342;51.442;7.370;2022-07-09T11:07:56;3.65;;;2.38;;
71238;SDS011;61342;51.442;7.370;2022-07-09T11:08:57;5.55;;;2.70;;
71238;SDS011;61342;51.442;7.370;2022-07-09T11:09:58;5.35;;;2.33;;
71238;SDS011;61342;51.442;7.370;2022-07-09T11:10:58;5.25;;;2.40;;
71238;SDS011;61342;51.442;7.370;2022-07-09T11:11:59;6.80;;;2.60;;
71238;SDS011;61342;51.442;7.370;2022-07-09T11:13:01;3.55;;;2.47;;
71238;SDS011;61342;51.442;7.370;2022-07-09T11:14:01;4.97;;;2.67;;
71238;SDS011;61342;51.442;7.370;2022-07-09T11:15:02;4.13;;;2.08;;
71238;SDS011;61342;51.442;7.370;2022-07-09T11:16:02;6.72;;;2.10;;
71238;SDS011;61342;51.442;7.370;2022-07-09T11:17:13;3.42;;;2.25;;
71238;SDS011;61342;51.442;7.370;2022-07-09T11:18:25;5.85;;;2.47;;
71238;SDS011;61342;51.442;7.370;2022-07-09T11:19:26;3.30;;;2.13;;
71238;SDS011;61342;51.442;7.370;2022-07-09T11:20:37;3.97;;;2.30;;
71238;SDS011;61342;51.442;7.370;2022-07-09T11:21:39;3.72;;;2.20;;
71238;SDS011;61342;51.442;7.370;2022-07-09T11:22:49;4.55;;;2.22;;
71238;SDS011;61342;51.442;7.370;2022-07-09T11:23:49;4.25;;;2.45;;
71238;SDS011;61342;51.442;7.370;2022-07-09T11:24:53;3.50;;;2.17;;
71238;SDS011;61342;51.442;7.370;2022-07-09T11:25:59;3.97;;;2.42;;
71238;SDS011;61342;51.442;7.370;2022-07-09T11:27:05;3.35;;;2.00;;
71238;SDS011;61342;51.442;7.370;2022-07-09T11:28:17;3.33;;;2.10;;
71238;SDS011;61342;51.442;7.370;2022-07-09T11:29:19;3.17;;;1.90;;
71238;SDS011;61342;51.442;7.370;2022-07-09T11:30:20;3.75;;;2.05;;
71238;SDS011;61342;51.442;7.370;2022-07-09T11:31:22;2.97;;;1.70;;
71238;SDS011;61342;51.442;7.370;2022-07-09T11:32:30;2.47;;;1.75;;
71238;SDS011;61342;51.442;7.370;2022-07-09T11:33:36;4.55;;;1.50;;
71238;SDS011;61342;51.442;7.370;2022-07-09T11:34:58;2.00;;;1.80;;
71238;SDS011;61342;51.442;7.370;2022-07-09T11:35:59;2.50;;;1.60;;
71238;SDS011;61342;51.442;7.370;2022-07-09T11:37:05;2.25;;;1.55;;
71238;SDS011;61342;51.442;7.370;2022-07-09T11:38:10;1.45;;;1.35;;
71238;SDS011;61342;51.442;7.370;2022-07-09T11:39:29;2.65;;;2.00;;
71238;SDS011;61342;51.442;7.370;2022-07-09T11:40:32;3.10;;;1.67;;
71238;SDS011;61342;51.442;7.370;2022-07-09T11:41:42;2.33;;;1.77;;
71238;SDS011;61342;51.442;7.370;2022-07-09T11:42:46;2.55;;;1.55;;
71238;SDS011;61342;51.442;7.370;2022-07-09T11:43:47;3.72;;;1.80;;
71238;SDS011;61342;51.442;7.370;2022-07-09T11:44:57;2.88;;;1.90;;
71238;SDS011;61342;51.442;7.370;2022-07-09T11:46:00;2.60;;;1.70;;
71238;SDS011;61342;51.442;7.370;2022-07-09T11:48:04;2.40;;;1.63;;
71238;SDS011;61342;51.442;7.370;2022-07-09T11:49:16;2.50;;;1.75;;
71238;SDS011;61342;51.442;7.370;2022-07-09T11:50:19;2.08;;;1.73;;
71238;SDS011;61342;51.442;7.370;2022-07-09T11:51:34;4.40;;;1.80;;
71238;SDS011;61342;51.442;7.370;2022-07-09T11:52:35;3.40;;;1.70;;
71238;SDS011;61342;51.442;7.370;2022-07-09T11:53:37;1.65;;;1.42;;
71238;SDS011;61342;51.442;7.370;2022-07-09T11:54:39;2.42;;;1.70;;